sensor_id;sensor_type;location;lat;lon;timestamp;temperature;humidity
21023;DHT22;10669;51.076;3.714;2022-07-29T00:00:40;19.50;99.90
21023;DHT22;10669;51.076;3.714;2022-07-29T00:03:12;19.70;99.90
21023;DHT22;10669;51.076;3.714;2022-07-29T00:05:41;19.60;99.90
21023;DHT22;10669;51.076;3.714;2022-07-29T00:08:08;19.50;99.90
21023;DHT22;10669;51.076;3.714;2022-07-29T00:10:35;19.30;99.90
21023;DHT22;10669;51.076;3.714;2022-07-29T00:13:04;19.20;99.90
21023;DHT22;10669;51.076;3.714;2022-07-29T00:15:32;19.10;99.90
21023;DHT22;10669;51.076;3.714;2022-07-29T00:17:59;19.20;99.90
21023;DHT22;10669;51.076;3.714;2022-07-29T00:20:26;19.20;99.90
21023;DHT22;10669;51.076;3.714;2022-07-29T00:22:53;19.20;99.90
21023;DHT22;10669;51.076;3.714;2022-07-29T00:25:20;19.30;99.90
21023;DHT22;10669;51.076;3.714;2022-07-29T00:27:46;19.30;99.90
21023;DHT22;10669;51.076;3.714;2022-07-29T00:30:12;19.20;99.90
21023;DHT22;10669;51.076;3.714;2022-07-29T00:32:39;19.20;99.90
21023;DHT22;10669;51.076;3.714;2022-07-29T00:35:05;19.20;99.90
21023;DHT22;10669;51.076;3.714;2022-07-29T00:37:49;19.20;99.90
21023;DHT22;10669;51.076;3.714;2022-07-29T00:40:16;19.10;99.90
21023;DHT22;10669;51.076;3.714;2022-07-29T00:42:48;19.30;99.90
21023;DHT22;10669;51.076;3.714;2022-07-29T00:45:16;19.30;99.90
21023;DHT22;10669;51.076;3.714;2022-07-29T00:47:43;19.20;99.90
21023;DHT22;10669;51.076;3.714;2022-07-29T00:50:12;19.30;99.90
21023;DHT22;10669;51.076;3.714;2022-07-29T00:52:40;19.20;99.90
21023;DHT22;10669;51.076;3.714;2022-07-29T00:55:09;19.10;99.90
21023;DHT22;10669;51.076;3.714;2022-07-29T00:57:37;19.00;99.90
21023;DHT22;10669;51.076;3.714;2022-07-29T01:00:04;19.00;99.90
21023;DHT22;10669;51.076;3.714;2022-07-29T01:02:31;19.10;99.90
21023;DHT22;10669;51.076;3.714;2022-07-29T01:04:58;19.10;99.90
21023;DHT22;10669;51.076;3.714;2022-07-29T01:07:27;18.80;99.90
21023;DHT22;10669;51.076;3.714;2022-07-29T01:09:56;18.60;99.90
21023;DHT22;10669;51.076;3.714;2022-07-29T01:12:26;18.50;99.90
21023;DHT22;10669;51.076;3.714;2022-07-29T01:14:54;18.50;99.90
21023;DHT22;10669;51.076;3.714;2022-07-29T01:17:43;18.60;99.90
21023;DHT22;10669;51.076;3.714;2022-07-29T01:20:31;18.80;99.90
21023;DHT22;10669;51.076;3.714;2022-07-29T01:28:49;18.40;99.90
21023;DHT22;10669;51.076;3.714;2022-07-29T01:31:22;18.20;99.90
21023;DHT22;10669;51.076;3.714;2022-07-29T01:33:55;18.30;99.90
21023;DHT22;10669;51.076;3.714;2022-07-29T01:36:33;18.40;99.90
21023;DHT22;10669;51.076;3.714;2022-07-29T01:39:08;18.10;99.90
21023;DHT22;10669;51.076;3.714;2022-07-29T01:41:40;18.00;99.90
21023;DHT22;10669;51.076;3.714;2022-07-29T01:44:19;17.90;99.90
21023;DHT22;10669;51.076;3.714;2022-07-29T01:46:52;17.90;99.90
21023;DHT22;10669;51.076;3.714;2022-07-29T01:49:27;17.90;99.90
21023;DHT22;10669;51.076;3.714;2022-07-29T01:52:19;17.90;99.90
21023;DHT22;10669;51.076;3.714;2022-07-29T01:54:50;17.90;99.90
21023;DHT22;10669;51.076;3.714;2022-07-29T01:57:19;17.90;99.90
21023;DHT22;10669;51.076;3.714;2022-07-29T01:59:48;17.80;99.90
21023;DHT22;10669;51.076;3.714;2022-07-29T02:02:18;17.80;99.90
21023;DHT22;10669;51.076;3.714;2022-07-29T02:04:47;17.90;99.90
21023;DHT22;10669;51.076;3.714;2022-07-29T02:07:19;17.80;99.90
21023;DHT22;10669;51.076;3.714;2022-07-29T02:09:47;17.80;99.90
21023;DHT22;10669;51.076;3.714;2022-07-29T02:12:23;17.70;99.90
21023;DHT22;10669;51.076;3.714;2022-07-29T02:14:54;17.80;99.90
21023;DHT22;10669;51.076;3.714;2022-07-29T02:17:26;17.90;99.90
21023;DHT22;10669;51.076;3.714;2022-07-29T02:19:59;17.70;99.90
21023;DHT22;10669;51.076;3.714;2022-07-29T02:22:33;17.60;99.90
21023;DHT22;10669;51.076;3.714;2022-07-29T02:25:02;17.70;99.90
21023;DHT22;10669;51.076;3.714;2022-07-29T02:27:31;17.60;99.90
21023;DHT22;10669;51.076;3.714;2022-07-29T02:30:03;17.60;99.90
21023;DHT22;10669;51.076;3.714;2022-07-29T02:32:30;17.60;99.90
21023;DHT22;10669;51.076;3.714;2022-07-29T02:34:59;17.60;99.90
21023;DHT22;10669;51.076;3.714;2022-07-29T02:37:27;17.60;99.90
21023;DHT22;10669;51.076;3.714;2022-07-29T02:39:57;17.60;99.90
21023;DHT22;10669;51.076;3.714;2022-07-29T02:42:26;17.60;99.90
21023;DHT22;10669;51.076;3.714;2022-07-29T02:44:53;17.50;99.90
21023;DHT22;10669;51.076;3.714;2022-07-29T02:50:28;17.60;99.90
21023;DHT22;10669;51.076;3.714;2022-07-29T02:53:05;17.80;99.90
21023;DHT22;10669;51.076;3.714;2022-07-29T02:55:43;17.90;99.90
21023;DHT22;10669;51.076;3.714;2022-07-29T02:58:25;17.90;99.90
21023;DHT22;10669;51.076;3.714;2022-07-29T03:00:58;17.60;99.90
21023;DHT22;10669;51.076;3.714;2022-07-29T03:03:31;17.50;99.90
21023;DHT22;10669;51.076;3.714;2022-07-29T03:06:00;17.50;99.90
21023;DHT22;10669;51.076;3.714;2022-07-29T03:08:27;17.40;99.90
21023;DHT22;10669;51.076;3.714;2022-07-29T03:10:53;17.30;99.90
21023;DHT22;10669;51.076;3.714;2022-07-29T03:13:21;17.40;99.90
21023;DHT22;10669;51.076;3.714;2022-07-29T03:15:48;17.60;99.90
21023;DHT22;10669;51.076;3.714;2022-07-29T03:18:18;17.70;99.90
21023;DHT22;10669;51.076;3.714;2022-07-29T03:20:46;17.70;99.90
21023;DHT22;10669;51.076;3.714;2022-07-29T03:23:11;17.60;99.90
21023;DHT22;10669;51.076;3.714;2022-07-29T03:25:40;17.50;99.90
21023;DHT22;10669;51.076;3.714;2022-07-29T03:28:08;17.30;99.90
21023;DHT22;10669;51.076;3.714;2022-07-29T03:30:34;17.30;99.90
21023;DHT22;10669;51.076;3.714;2022-07-29T03:32:59;17.50;99.90
21023;DHT22;10669;51.076;3.714;2022-07-29T03:35:26;17.50;99.90
21023;DHT22;10669;51.076;3.714;2022-07-29T03:37:52;17.40;99.90
21023;DHT22;10669;51.076;3.714;2022-07-29T03:40:42;17.40;99.90
21023;DHT22;10669;51.076;3.714;2022-07-29T03:43:11;17.50;99.90
21023;DHT22;10669;51.076;3.714;2022-07-29T03:45:41;17.70;99.90
21023;DHT22;10669;51.076;3.714;2022-07-29T03:48:11;17.60;99.90
21023;DHT22;10669;51.076;3.714;2022-07-29T03:50:38;17.40;99.90
21023;DHT22;10669;51.076;3.714;2022-07-29T03:53:04;17.30;99.90
21023;DHT22;10669;51.076;3.714;2022-07-29T03:55:36;17.00;99.90
21023;DHT22;10669;51.076;3.714;2022-07-29T03:58:04;16.80;99.90
21023;DHT22;10669;51.076;3.714;2022-07-29T04:00:32;16.80;99.90
21023;DHT22;10669;51.076;3.714;2022-07-29T04:02:59;16.80;99.90
21023;DHT22;10669;51.076;3.714;2022-07-29T04:05:24;16.80;99.90
21023;DHT22;10669;51.076;3.714;2022-07-29T04:07:50;16.90;99.90
21023;DHT22;10669;51.076;3.714;2022-07-29T04:10:16;16.80;99.90
21023;DHT22;10669;51.076;3.714;2022-07-29T04:12:43;16.70;99.90
21023;DHT22;10669;51.076;3.714;2022-07-29T04:15:09;16.80;99.90
21023;DHT22;10669;51.076;3.714;2022-07-29T04:17:37;17.00;99.90
21023;DHT22;10669;51.076;3.714;2022-07-29T04:20:03;17.00;99.90
21023;DHT22;10669;51.076;3.714;2022-07-29T04:22:33;16.90;99.90
21023;DHT22;10669;51.076;3.714;2022-07-29T04:25:00;17.00;99.90
21023;DHT22;10669;51.076;3.714;2022-07-29T04:27:26;16.80;99.90
21023;DHT22;10669;51.076;3.714;2022-07-29T04:29:52;16.90;99.90
21023;DHT22;10669;51.076;3.714;2022-07-29T04:32:18;16.90;99.90
21023;DHT22;10669;51.076;3.714;2022-07-29T04:34:44;17.00;99.90
21023;DHT22;10669;51.076;3.714;2022-07-29T04:37:12;17.20;99.90
21023;DHT22;10669;51.076;3.714;2022-07-29T04:39:39;17.30;99.90
21023;DHT22;10669;51.076;3.714;2022-07-29T04:42:04;17.60;99.90
21023;DHT22;10669;51.076;3.714;2022-07-29T04:44:30;17.90;99.90
21023;DHT22;10669;51.076;3.714;2022-07-29T04:46:56;18.10;99.90
21023;DHT22;10669;51.076;3.714;2022-07-29T04:49:23;17.70;99.90
21023;DHT22;10669;51.076;3.714;2022-07-29T04:51:49;17.70;99.90
21023;DHT22;10669;51.076;3.714;2022-07-29T04:54:15;17.60;99.90
21023;DHT22;10669;51.076;3.714;2022-07-29T04:56:41;17.30;99.90
21023;DHT22;10669;51.076;3.714;2022-07-29T04:59:08;17.50;99.90
21023;DHT22;10669;51.076;3.714;2022-07-29T05:01:35;17.50;99.90
21023;DHT22;10669;51.076;3.714;2022-07-29T05:04:01;17.60;99.90
21023;DHT22;10669;51.076;3.714;2022-07-29T05:06:28;17.80;99.90
21023;DHT22;10669;51.076;3.714;2022-07-29T05:08:55;17.70;99.90
21023;DHT22;10669;51.076;3.714;2022-07-29T05:11:23;17.40;99.90
21023;DHT22;10669;51.076;3.714;2022-07-29T05:13:49;17.30;99.90
21023;DHT22;10669;51.076;3.714;2022-07-29T05:16:15;17.30;99.90
21023;DHT22;10669;51.076;3.714;2022-07-29T05:18:42;17.50;99.90
21023;DHT22;10669;51.076;3.714;2022-07-29T05:21:10;17.80;99.90
21023;DHT22;10669;51.076;3.714;2022-07-29T05:23:40;18.00;99.90
21023;DHT22;10669;51.076;3.714;2022-07-29T05:26:06;18.10;99.90
21023;DHT22;10669;51.076;3.714;2022-07-29T05:28:35;17.90;99.90
21023;DHT22;10669;51.076;3.714;2022-07-29T05:31:02;17.70;99.90
21023;DHT22;10669;51.076;3.714;2022-07-29T05:33:29;17.60;99.90
21023;DHT22;10669;51.076;3.714;2022-07-29T05:35:56;17.60;99.90
21023;DHT22;10669;51.076;3.714;2022-07-29T05:38:25;17.60;99.90
21023;DHT22;10669;51.076;3.714;2022-07-29T05:40:51;17.70;99.90
21023;DHT22;10669;51.076;3.714;2022-07-29T05:43:17;17.80;99.90
21023;DHT22;10669;51.076;3.714;2022-07-29T05:45:42;18.00;99.90
21023;DHT22;10669;51.076;3.714;2022-07-29T05:48:09;18.10;99.90
21023;DHT22;10669;51.076;3.714;2022-07-29T05:50:35;18.00;99.90
21023;DHT22;10669;51.076;3.714;2022-07-29T05:53:00;18.20;99.90
21023;DHT22;10669;51.076;3.714;2022-07-29T05:55:26;18.20;99.90
21023;DHT22;10669;51.076;3.714;2022-07-29T05:57:54;18.30;99.90
21023;DHT22;10669;51.076;3.714;2022-07-29T06:00:20;18.30;99.90
21023;DHT22;10669;51.076;3.714;2022-07-29T06:02:47;18.40;99.90
21023;DHT22;10669;51.076;3.714;2022-07-29T06:05:13;18.50;99.90
21023;DHT22;10669;51.076;3.714;2022-07-29T06:07:41;18.40;99.90
21023;DHT22;10669;51.076;3.714;2022-07-29T06:10:07;18.30;99.90
21023;DHT22;10669;51.076;3.714;2022-07-29T06:12:34;18.00;99.90
21023;DHT22;10669;51.076;3.714;2022-07-29T06:15:00;17.80;99.90
21023;DHT22;10669;51.076;3.714;2022-07-29T06:17:26;18.00;99.90
21023;DHT22;10669;51.076;3.714;2022-07-29T06:19:52;18.10;99.90
21023;DHT22;10669;51.076;3.714;2022-07-29T06:22:18;18.10;99.90
21023;DHT22;10669;51.076;3.714;2022-07-29T06:24:45;18.00;99.90
21023;DHT22;10669;51.076;3.714;2022-07-29T06:27:12;18.10;99.90
21023;DHT22;10669;51.076;3.714;2022-07-29T06:29:39;18.40;99.90
21023;DHT22;10669;51.076;3.714;2022-07-29T06:32:05;18.50;99.90
21023;DHT22;10669;51.076;3.714;2022-07-29T06:34:31;18.50;99.90
21023;DHT22;10669;51.076;3.714;2022-07-29T06:36:56;18.70;99.90
21023;DHT22;10669;51.076;3.714;2022-07-29T06:39:23;18.80;99.90
21023;DHT22;10669;51.076;3.714;2022-07-29T06:41:50;19.00;99.90
21023;DHT22;10669;51.076;3.714;2022-07-29T06:44:17;19.20;99.90
21023;DHT22;10669;51.076;3.714;2022-07-29T06:46:44;19.50;99.90
21023;DHT22;10669;51.076;3.714;2022-07-29T06:49:12;19.30;99.90
21023;DHT22;10669;51.076;3.714;2022-07-29T06:51:39;19.30;99.90
21023;DHT22;10669;51.076;3.714;2022-07-29T06:54:07;19.50;99.90
21023;DHT22;10669;51.076;3.714;2022-07-29T06:56:36;19.60;99.90
21023;DHT22;10669;51.076;3.714;2022-07-29T06:59:03;19.70;99.90
21023;DHT22;10669;51.076;3.714;2022-07-29T07:01:32;19.90;99.90
21023;DHT22;10669;51.076;3.714;2022-07-29T07:04:05;20.10;99.90
21023;DHT22;10669;51.076;3.714;2022-07-29T07:06:32;20.40;99.90
21023;DHT22;10669;51.076;3.714;2022-07-29T07:08:59;20.50;99.90
21023;DHT22;10669;51.076;3.714;2022-07-29T07:11:28;20.50;99.90
21023;DHT22;10669;51.076;3.714;2022-07-29T07:13:54;20.10;99.90
21023;DHT22;10669;51.076;3.714;2022-07-29T07:16:21;20.00;99.90
21023;DHT22;10669;51.076;3.714;2022-07-29T07:18:50;20.00;99.90
21023;DHT22;10669;51.076;3.714;2022-07-29T07:21:16;19.60;99.90
21023;DHT22;10669;51.076;3.714;2022-07-29T07:23:45;19.90;99.90
21023;DHT22;10669;51.076;3.714;2022-07-29T07:26:11;19.90;99.90
21023;DHT22;10669;51.076;3.714;2022-07-29T07:28:38;19.60;99.90
21023;DHT22;10669;51.076;3.714;2022-07-29T07:31:05;19.70;99.90
21023;DHT22;10669;51.076;3.714;2022-07-29T07:33:30;20.40;99.90
21023;DHT22;10669;51.076;3.714;2022-07-29T07:35:56;20.90;99.90
21023;DHT22;10669;51.076;3.714;2022-07-29T07:38:23;20.40;99.90
21023;DHT22;10669;51.076;3.714;2022-07-29T07:40:50;20.00;99.90
21023;DHT22;10669;51.076;3.714;2022-07-29T07:43:22;20.10;99.90
21023;DHT22;10669;51.076;3.714;2022-07-29T07:45:48;20.50;99.90
21023;DHT22;10669;51.076;3.714;2022-07-29T07:48:14;20.50;99.90
21023;DHT22;10669;51.076;3.714;2022-07-29T07:50:42;20.40;99.90
21023;DHT22;10669;51.076;3.714;2022-07-29T07:53:10;20.30;99.90
21023;DHT22;10669;51.076;3.714;2022-07-29T07:55:43;20.30;99.90
21023;DHT22;10669;51.076;3.714;2022-07-29T07:58:10;20.60;99.90
21023;DHT22;10669;51.076;3.714;2022-07-29T08:00:37;20.60;99.90
21023;DHT22;10669;51.076;3.714;2022-07-29T08:03:04;20.60;99.90
21023;DHT22;10669;51.076;3.714;2022-07-29T08:05:29;20.80;99.90
21023;DHT22;10669;51.076;3.714;2022-07-29T08:07:56;21.00;99.90
21023;DHT22;10669;51.076;3.714;2022-07-29T08:10:22;20.80;99.90
21023;DHT22;10669;51.076;3.714;2022-07-29T08:13:09;20.60;99.90
21023;DHT22;10669;51.076;3.714;2022-07-29T08:15:40;20.80;99.90
21023;DHT22;10669;51.076;3.714;2022-07-29T08:18:07;21.10;99.90
21023;DHT22;10669;51.076;3.714;2022-07-29T08:20:36;21.00;99.90
21023;DHT22;10669;51.076;3.714;2022-07-29T08:23:04;20.80;99.90
21023;DHT22;10669;51.076;3.714;2022-07-29T08:25:33;21.00;99.90
21023;DHT22;10669;51.076;3.714;2022-07-29T08:27:59;21.00;99.90
21023;DHT22;10669;51.076;3.714;2022-07-29T08:30:26;21.20;99.90
21023;DHT22;10669;51.076;3.714;2022-07-29T08:32:51;21.20;99.90
21023;DHT22;10669;51.076;3.714;2022-07-29T08:35:21;21.20;99.90
21023;DHT22;10669;51.076;3.714;2022-07-29T08:37:51;21.10;99.90
21023;DHT22;10669;51.076;3.714;2022-07-29T08:40:18;21.00;99.90
21023;DHT22;10669;51.076;3.714;2022-07-29T08:42:47;21.30;99.90
21023;DHT22;10669;51.076;3.714;2022-07-29T08:45:13;21.60;99.90
21023;DHT22;10669;51.076;3.714;2022-07-29T08:47:39;21.50;99.90
21023;DHT22;10669;51.076;3.714;2022-07-29T08:50:09;21.20;99.90
21023;DHT22;10669;51.076;3.714;2022-07-29T08:52:39;21.10;99.90
21023;DHT22;10669;51.076;3.714;2022-07-29T08:55:07;21.40;99.90
21023;DHT22;10669;51.076;3.714;2022-07-29T08:57:34;21.70;99.90
21023;DHT22;10669;51.076;3.714;2022-07-29T09:00:01;21.80;99.90
21023;DHT22;10669;51.076;3.714;2022-07-29T09:02:29;21.90;99.90
21023;DHT22;10669;51.076;3.714;2022-07-29T09:04:57;22.00;99.90
21023;DHT22;10669;51.076;3.714;2022-07-29T09:07:26;22.10;99.90
21023;DHT22;10669;51.076;3.714;2022-07-29T09:09:52;22.30;99.90
21023;DHT22;10669;51.076;3.714;2022-07-29T09:12:18;22.20;99.90
21023;DHT22;10669;51.076;3.714;2022-07-29T09:14:47;22.20;99.90
21023;DHT22;10669;51.076;3.714;2022-07-29T09:17:13;22.10;99.90
21023;DHT22;10669;51.076;3.714;2022-07-29T09:19:43;22.20;99.90
21023;DHT22;10669;51.076;3.714;2022-07-29T09:22:10;22.40;99.90
21023;DHT22;10669;51.076;3.714;2022-07-29T09:24:47;22.00;99.90
21023;DHT22;10669;51.076;3.714;2022-07-29T09:27:25;22.10;99.90
21023;DHT22;10669;51.076;3.714;2022-07-29T09:30:04;22.10;99.90
21023;DHT22;10669;51.076;3.714;2022-07-29T09:32:31;22.30;99.90
21023;DHT22;10669;51.076;3.714;2022-07-29T09:35:20;22.60;99.90
21023;DHT22;10669;51.076;3.714;2022-07-29T09:37:49;22.60;99.90
21023;DHT22;10669;51.076;3.714;2022-07-29T09:40:20;22.60;99.90
21023;DHT22;10669;51.076;3.714;2022-07-29T09:42:49;22.40;99.90
21023;DHT22;10669;51.076;3.714;2022-07-29T09:45:33;22.40;99.90
21023;DHT22;10669;51.076;3.714;2022-07-29T09:48:19;22.60;99.90
21023;DHT22;10669;51.076;3.714;2022-07-29T09:50:46;22.80;99.90
21023;DHT22;10669;51.076;3.714;2022-07-29T09:53:34;22.70;99.90
21023;DHT22;10669;51.076;3.714;2022-07-29T09:56:00;22.80;99.90
21023;DHT22;10669;51.076;3.714;2022-07-29T09:58:27;22.90;99.90
21023;DHT22;10669;51.076;3.714;2022-07-29T10:00:54;23.30;99.90
21023;DHT22;10669;51.076;3.714;2022-07-29T10:03:22;23.40;99.90
21023;DHT22;10669;51.076;3.714;2022-07-29T10:06:08;23.20;99.90
21023;DHT22;10669;51.076;3.714;2022-07-29T10:08:35;23.30;99.90
21023;DHT22;10669;51.076;3.714;2022-07-29T10:11:12;23.20;99.90
21023;DHT22;10669;51.076;3.714;2022-07-29T10:13:42;23.20;99.90
21023;DHT22;10669;51.076;3.714;2022-07-29T10:16:10;23.20;99.90
21023;DHT22;10669;51.076;3.714;2022-07-29T10:18:39;23.10;99.90
21023;DHT22;10669;51.076;3.714;2022-07-29T10:21:06;23.00;99.90
21023;DHT22;10669;51.076;3.714;2022-07-29T10:23:34;23.20;99.90
21023;DHT22;10669;51.076;3.714;2022-07-29T10:26:02;23.40;99.90
21023;DHT22;10669;51.076;3.714;2022-07-29T10:28:32;23.50;99.90
21023;DHT22;10669;51.076;3.714;2022-07-29T10:31:06;23.80;99.90
21023;DHT22;10669;51.076;3.714;2022-07-29T10:37:07;23.60;99.90
21023;DHT22;10669;51.076;3.714;2022-07-29T10:42:31;23.70;99.90
21023;DHT22;10669;51.076;3.714;2022-07-29T10:44:58;23.70;99.90
21023;DHT22;10669;51.076;3.714;2022-07-29T10:47:27;23.70;99.90
21023;DHT22;10669;51.076;3.714;2022-07-29T10:50:02;24.00;99.40
21023;DHT22;10669;51.076;3.714;2022-07-29T10:55:38;23.80;99.40
21023;DHT22;10669;51.076;3.714;2022-07-29T10:58:15;23.80;99.60
21023;DHT22;10669;51.076;3.714;2022-07-29T11:00:43;24.20;99.70
21023;DHT22;10669;51.076;3.714;2022-07-29T11:03:45;24.50;99.40
21023;DHT22;10669;51.076;3.714;2022-07-29T11:06:11;24.70;98.40
21023;DHT22;10669;51.076;3.714;2022-07-29T11:08:37;24.90;97.40
21023;DHT22;10669;51.076;3.714;2022-07-29T11:13:47;25.10;97.60
21023;DHT22;10669;51.076;3.714;2022-07-29T11:16:16;25.10;97.10
21023;DHT22;10669;51.076;3.714;2022-07-29T11:21:41;25.10;96.30
21023;DHT22;10669;51.076;3.714;2022-07-29T11:24:15;25.40;96.30
21023;DHT22;10669;51.076;3.714;2022-07-29T11:26:41;25.30;96.20
21023;DHT22;10669;51.076;3.714;2022-07-29T11:29:21;25.40;96.30
21023;DHT22;10669;51.076;3.714;2022-07-29T11:31:51;25.50;95.90
21023;DHT22;10669;51.076;3.714;2022-07-29T11:34:38;25.70;95.60
21023;DHT22;10669;51.076;3.714;2022-07-29T11:47:47;25.30;96.00
21023;DHT22;10669;51.076;3.714;2022-07-29T11:50:39;25.00;96.70
21023;DHT22;10669;51.076;3.714;2022-07-29T11:53:11;25.10;97.00
21023;DHT22;10669;51.076;3.714;2022-07-29T11:55:40;25.80;96.50
21023;DHT22;10669;51.076;3.714;2022-07-29T11:58:06;25.80;95.30
21023;DHT22;10669;51.076;3.714;2022-07-29T12:00:38;25.30;95.70
21023;DHT22;10669;51.076;3.714;2022-07-29T12:03:09;25.50;95.60
21023;DHT22;10669;51.076;3.714;2022-07-29T12:05:42;25.40;95.40
21023;DHT22;10669;51.076;3.714;2022-07-29T12:08:17;25.20;95.10
21023;DHT22;10669;51.076;3.714;2022-07-29T12:10:50;25.30;94.90
21023;DHT22;10669;51.076;3.714;2022-07-29T12:13:20;25.60;94.80
21023;DHT22;10669;51.076;3.714;2022-07-29T12:15:56;25.90;94.20
21023;DHT22;10669;51.076;3.714;2022-07-29T12:18:23;26.20;93.40
21023;DHT22;10669;51.076;3.714;2022-07-29T12:20:57;26.30;93.00
21023;DHT22;10669;51.076;3.714;2022-07-29T12:23:26;26.40;93.10
21023;DHT22;10669;51.076;3.714;2022-07-29T12:25:51;26.20;92.80
21023;DHT22;10669;51.076;3.714;2022-07-29T12:28:18;26.20;93.60
21023;DHT22;10669;51.076;3.714;2022-07-29T12:30:48;26.50;92.80
21023;DHT22;10669;51.076;3.714;2022-07-29T12:33:28;26.70;92.10
21023;DHT22;10669;51.076;3.714;2022-07-29T12:35:58;27.20;92.20
21023;DHT22;10669;51.076;3.714;2022-07-29T12:38:35;27.70;91.50
21023;DHT22;10669;51.076;3.714;2022-07-29T12:41:03;28.00;91.20
21023;DHT22;10669;51.076;3.714;2022-07-29T12:43:30;28.10;90.40
21023;DHT22;10669;51.076;3.714;2022-07-29T12:45:57;28.10;90.10
21023;DHT22;10669;51.076;3.714;2022-07-29T12:48:40;28.10;90.50
21023;DHT22;10669;51.076;3.714;2022-07-29T12:51:09;27.70;91.50
21023;DHT22;10669;51.076;3.714;2022-07-29T12:53:40;27.20;91.90
21023;DHT22;10669;51.076;3.714;2022-07-29T12:56:06;26.40;93.20
21023;DHT22;10669;51.076;3.714;2022-07-29T12:58:42;26.60;93.30
21023;DHT22;10669;51.076;3.714;2022-07-29T13:01:15;26.60;92.90
21023;DHT22;10669;51.076;3.714;2022-07-29T13:03:52;26.50;92.80
21023;DHT22;10669;51.076;3.714;2022-07-29T13:06:44;26.20;93.80
21023;DHT22;10669;51.076;3.714;2022-07-29T13:09:40;26.30;93.70
21023;DHT22;10669;51.076;3.714;2022-07-29T13:12:09;26.20;94.00
21023;DHT22;10669;51.076;3.714;2022-07-29T13:14:45;26.30;94.10
21023;DHT22;10669;51.076;3.714;2022-07-29T13:17:17;26.10;94.20
21023;DHT22;10669;51.076;3.714;2022-07-29T13:19:52;26.00;94.30
21023;DHT22;10669;51.076;3.714;2022-07-29T13:22:23;26.00;94.60
21023;DHT22;10669;51.076;3.714;2022-07-29T13:24:58;26.20;94.10
21023;DHT22;10669;51.076;3.714;2022-07-29T13:27:28;26.10;94.40
21023;DHT22;10669;51.076;3.714;2022-07-29T13:29:56;26.00;94.10
21023;DHT22;10669;51.076;3.714;2022-07-29T13:32:23;26.20;94.10
21023;DHT22;10669;51.076;3.714;2022-07-29T13:34:54;26.30;93.80
21023;DHT22;10669;51.076;3.714;2022-07-29T13:37:23;26.50;93.40
21023;DHT22;10669;51.076;3.714;2022-07-29T13:39:52;26.60;92.40
21023;DHT22;10669;51.076;3.714;2022-07-29T13:42:22;27.00;92.00
21023;DHT22;10669;51.076;3.714;2022-07-29T13:44:54;26.70;91.90
21023;DHT22;10669;51.076;3.714;2022-07-29T13:47:22;26.90;91.60
21023;DHT22;10669;51.076;3.714;2022-07-29T13:49:51;27.00;92.60
21023;DHT22;10669;51.076;3.714;2022-07-29T13:52:20;26.70;93.40
21023;DHT22;10669;51.076;3.714;2022-07-29T13:54:46;26.60;93.10
21023;DHT22;10669;51.076;3.714;2022-07-29T13:57:13;26.70;93.20
21023;DHT22;10669;51.076;3.714;2022-07-29T13:59:41;26.50;93.20
21023;DHT22;10669;51.076;3.714;2022-07-29T14:02:08;26.30;93.20
21023;DHT22;10669;51.076;3.714;2022-07-29T14:04:34;26.60;93.00
21023;DHT22;10669;51.076;3.714;2022-07-29T14:07:00;26.80;92.30
21023;DHT22;10669;51.076;3.714;2022-07-29T14:09:26;26.60;92.60
21023;DHT22;10669;51.076;3.714;2022-07-29T14:11:52;26.60;92.40
21023;DHT22;10669;51.076;3.714;2022-07-29T14:14:20;26.80;92.40
21023;DHT22;10669;51.076;3.714;2022-07-29T14:16:49;27.20;92.30
21023;DHT22;10669;51.076;3.714;2022-07-29T14:19:16;27.70;91.90
21023;DHT22;10669;51.076;3.714;2022-07-29T14:21:42;27.70;90.90
21023;DHT22;10669;51.076;3.714;2022-07-29T14:24:11;27.70;90.60
21023;DHT22;10669;51.076;3.714;2022-07-29T14:26:37;27.00;91.40
21023;DHT22;10669;51.076;3.714;2022-07-29T14:29:05;27.10;91.60
21023;DHT22;10669;51.076;3.714;2022-07-29T14:31:31;26.90;91.50
21023;DHT22;10669;51.076;3.714;2022-07-29T14:33:57;27.00;92.00
21023;DHT22;10669;51.076;3.714;2022-07-29T14:36:24;27.30;91.50
21023;DHT22;10669;51.076;3.714;2022-07-29T14:38:52;26.90;91.50
21023;DHT22;10669;51.076;3.714;2022-07-29T14:41:18;26.70;91.30
21023;DHT22;10669;51.076;3.714;2022-07-29T14:43:43;26.60;92.20
21023;DHT22;10669;51.076;3.714;2022-07-29T14:46:09;26.90;91.50
21023;DHT22;10669;51.076;3.714;2022-07-29T14:48:36;27.20;91.70
21023;DHT22;10669;51.076;3.714;2022-07-29T14:51:01;27.30;90.70
21023;DHT22;10669;51.076;3.714;2022-07-29T14:53:30;27.50;91.00
21023;DHT22;10669;51.076;3.714;2022-07-29T14:55:56;27.40;90.90
21023;DHT22;10669;51.076;3.714;2022-07-29T14:58:22;27.70;90.30
21023;DHT22;10669;51.076;3.714;2022-07-29T15:00:48;27.20;91.10
21023;DHT22;10669;51.076;3.714;2022-07-29T15:03:14;27.10;91.20
21023;DHT22;10669;51.076;3.714;2022-07-29T15:05:40;27.30;91.60
21023;DHT22;10669;51.076;3.714;2022-07-29T15:08:06;27.80;90.80
21023;DHT22;10669;51.076;3.714;2022-07-29T15:10:34;27.40;90.70
21023;DHT22;10669;51.076;3.714;2022-07-29T15:13:01;27.70;90.90
21023;DHT22;10669;51.076;3.714;2022-07-29T15:15:30;27.80;90.30
21023;DHT22;10669;51.076;3.714;2022-07-29T15:17:56;28.00;90.00
21023;DHT22;10669;51.076;3.714;2022-07-29T15:20:25;28.30;90.40
21023;DHT22;10669;51.076;3.714;2022-07-29T15:22:54;28.80;89.80
21023;DHT22;10669;51.076;3.714;2022-07-29T15:25:23;28.70;90.40
21023;DHT22;10669;51.076;3.714;2022-07-29T15:27:49;30.10;88.90
21023;DHT22;10669;51.076;3.714;2022-07-29T15:30:15;30.70;86.20
21023;DHT22;10669;51.076;3.714;2022-07-29T15:32:46;30.20;85.40
21023;DHT22;10669;51.076;3.714;2022-07-29T15:35:18;29.20;87.10
21023;DHT22;10669;51.076;3.714;2022-07-29T15:37:45;29.30;88.00
21023;DHT22;10669;51.076;3.714;2022-07-29T15:40:12;29.40;87.20
21023;DHT22;10669;51.076;3.714;2022-07-29T15:42:38;30.80;84.80
21023;DHT22;10669;51.076;3.714;2022-07-29T15:45:04;31.30;82.10
21023;DHT22;10669;51.076;3.714;2022-07-29T15:47:31;30.30;82.50
21023;DHT22;10669;51.076;3.714;2022-07-29T15:49:57;30.30;83.30
21023;DHT22;10669;51.076;3.714;2022-07-29T15:52:23;30.20;83.00
21023;DHT22;10669;51.076;3.714;2022-07-29T15:54:56;30.10;81.70
21023;DHT22;10669;51.076;3.714;2022-07-29T15:57:23;31.40;80.00
21023;DHT22;10669;51.076;3.714;2022-07-29T15:59:49;32.10;77.90
21023;DHT22;10669;51.076;3.714;2022-07-29T16:02:15;31.50;77.00
21023;DHT22;10669;51.076;3.714;2022-07-29T16:04:41;30.70;78.50
21023;DHT22;10669;51.076;3.714;2022-07-29T16:07:08;30.50;80.20
21023;DHT22;10669;51.076;3.714;2022-07-29T16:09:35;31.00;78.30
21023;DHT22;10669;51.076;3.714;2022-07-29T16:12:00;30.80;79.10
21023;DHT22;10669;51.076;3.714;2022-07-29T16:14:29;31.30;76.90
21023;DHT22;10669;51.076;3.714;2022-07-29T16:16:55;29.60;79.10